Alder, WA

6:09 AM PDT on September 19, 2014 (GMT -0700)
Triangle Marsh | Change Station
CLOSE
Current Station
Personal Weather Station
Location: Eatonville, WA
Elevation: 757 ft
Nearby Weather Stations

Elev 757 ft 46.86 °N, 122.29 °W | Updated 2 minutes ago

Overcast
Overcast
58.5 °F
Feels Like 58.5 °F
N
0.0
Wind Variable Wind from North
Gusts 0.0 mph

Today
High -- | Low -- °F
--% Chance of Precip.
Yesterday
High -- | Low -- °F
Precip. -- in
6:52 AM 7:12 PM
Waning Crescent, 19% visible
Pressure 30.05 in
Visibility 10.0 miles
Clouds Mostly Cloudy 4100 ft
Overcast 8500 ft
Dew Point 47 °F
Humidity 66%
Rainfall 0.00 in
Snow Depth 0 in , 5 in , 0 in
UV 0 out of 12
Pollen 1.60 out of 12
PM2.5 Good
Flu Activity Not available.
METAR KGRF 191258Z AUTO 18005KT 10SM BKN041 OVC085 17/14 A3004 RMK AO2 SLP175 T01670142 PWINO $

More Conditions Fewer Conditions

Pressure 30.05 in
Visibility 10.0 miles
Clouds Mostly Cloudy 4100 ft
Overcast 8500 ft
Dew Point 47 °F
Humidity 66%
Rainfall 0.00 in
Snow Depth 0 in , 5 in , 0 in
UV 0 out of 12
Pollen 1.60 out of 12
PM2.5 Good
Flu Activity Not available.
METAR KGRF 191258Z AUTO 18005KT 10SM BKN041 OVC085 17/14 A3004 RMK AO2 SLP175 T01670142 PWINO $

More Conditions Fewer Conditions

10-Day Weather Forecast

Almanac

Astronomy

Sep. 19, 2014 Rise Set
Actual Time 6:52 AM PDT 7:12 PM PDT
Civil Twilight 6:21 AM PDT 7:42 PM PDT
Nautical Twilight 5:45 AM PDT 8:18 PM PDT
Astronomical Twilight 5:08 AM PDT 8:55 PM PDT
Moon 2:29 AM PDT 4:55 PM PDT
Length of Visible Light 13h 21m
Length of Day
12h 20m
Tomorrow will be 3m 19s shorter.
Waning Crescent, 19% of the Moon is Illuminated
Today
Waning Crescent
Sep 24
New
Oct 1
First Quarter
Oct 8
Full
Oct 15
Last Quarter

Today's Extremes

State Highs State Lows

Community

WunderPhotos

Upload Photos

1,754,606 photos uploaded!

WunderBlogs® & News

Nearby

Air Quality

  Air Quality AQ Index Pollutant
Yesterday Good
PM2.5
Yesterday Good
OZONE
Current Good
PM2.5
Friday Good
PM2.5
Friday Good
OZONE
Saturday Good
PM2.5
Saturday Good
OZONE
Sunday Good
PM2.5
Sunday Good
OZONE
Monday Good
OZONE
Monday Good
PM2.5
Tuesday Good
OZONE
Tuesday Good
PM2.5

Snow Depth

Station Depth Elevation
Sasse Ridge 0 in 4200 ft
Olallie Meadows 5 in 3700 ft
Harts Pass 0 in 6500 ft
Morse Lake 0 in 5400 ft
Mount Crag 0 in 4050 ft

Earthquake Activity

City Distance Mag. Time & Date
Seabeck, Washington 58 miles 4.0 3:06 AM PDT
2014-09-17
Morton, Washington 37 miles 3.0 5:43 AM PDT
2014-09-16
Minimum magnitude displayed is 2.5.

Coastal Water Temperatures

Place Temperature
Port Townsend, WA 53.1 °F
Seattle, WA 55.9 °F
Friday Harbor, WA 53.1 °F
Tacoma, WA 55.9 °F

Nearby Weather Stations